sensor_id;sensor_type;location;lat;lon;timestamp;pressure;altitude;pressure_sealevel;temperature
74915;BMP280;63475;45.140;-75.616;2023-02-01T00:00:21;101512.66;;;-11.74
74915;BMP280;63475;45.140;-75.616;2023-02-01T00:01:22;101522.78;;;-11.79
74915;BMP280;63475;45.140;-75.616;2023-02-01T00:02:23;101474.28;;;-12.16
74915;BMP280;63475;45.140;-75.616;2023-02-01T00:03:24;101487.75;;;-12.09
74915;BMP280;63475;45.140;-75.616;2023-02-01T00:04:25;101513.75;;;-12.00
74915;BMP280;63475;45.140;-75.616;2023-02-01T00:05:26;101507.41;;;-12.09
74915;BMP280;63475;45.140;-75.616;2023-02-01T00:06:27;101517.09;;;-11.99
74915;BMP280;63475;45.140;-75.616;2023-02-01T00:07:28;101514.31;;;-11.98
74915;BMP280;63475;45.140;-75.616;2023-02-01T00:08:29;101487.03;;;-12.16
74915;BMP280;63475;45.140;-75.616;2023-02-01T00:09:30;101515.09;;;-11.97
74915;BMP280;63475;45.140;-75.616;2023-02-01T00:10:31;101519.09;;;-12.02
74915;BMP280;63475;45.140;-75.616;2023-02-01T00:11:32;101519.88;;;-12.01
74915;BMP280;63475;45.140;-75.616;2023-02-01T00:12:33;101518.53;;;-12.04
74915;BMP280;63475;45.140;-75.616;2023-02-01T00:13:36;101520.31;;;-12.04
74915;BMP280;63475;45.140;-75.616;2023-02-01T00:14:38;101514.56;;;-12.18
74915;BMP280;63475;45.140;-75.616;2023-02-01T00:15:39;101502.56;;;-12.17
74915;BMP280;63475;45.140;-75.616;2023-02-01T00:16:40;101499.03;;;-12.35
74915;BMP280;63475;45.140;-75.616;2023-02-01T00:17:41;101493.00;;;-12.40
74915;BMP280;63475;45.140;-75.616;2023-02-01T00:18:43;101505.25;;;-12.31
74915;BMP280;63475;45.140;-75.616;2023-02-01T00:19:44;101497.38;;;-12.29
74915;BMP280;63475;45.140;-75.616;2023-02-01T00:20:46;101524.91;;;-12.13
74915;BMP280;63475;45.140;-75.616;2023-02-01T00:21:47;101523.78;;;-12.17
74915;BMP280;63475;45.140;-75.616;2023-02-01T00:22:48;101523.44;;;-12.20
74915;BMP280;63475;45.140;-75.616;2023-02-01T00:23:51;101510.94;;;-12.28
74915;BMP280;63475;45.140;-75.616;2023-02-01T00:24:52;101526.97;;;-12.21
74915;BMP280;63475;45.140;-75.616;2023-02-01T00:25:53;101530.50;;;-12.22
74915;BMP280;63475;45.140;-75.616;2023-02-01T00:26:54;101523.47;;;-12.27
74915;BMP280;63475;45.140;-75.616;2023-02-01T00:27:56;101497.81;;;-12.50
74915;BMP280;63475;45.140;-75.616;2023-02-01T00:29:00;101513.06;;;-12.44
74915;BMP280;63475;45.140;-75.616;2023-02-01T00:30:01;101485.59;;;-12.67
74915;BMP280;63475;45.140;-75.616;2023-02-01T00:31:04;101528.94;;;-12.42
74915;BMP280;63475;45.140;-75.616;2023-02-01T00:32:04;101515.00;;;-12.64
74915;BMP280;63475;45.140;-75.616;2023-02-01T00:33:05;101529.06;;;-12.55
74915;BMP280;63475;45.140;-75.616;2023-02-01T00:34:06;101534.72;;;-12.53
74915;BMP280;63475;45.140;-75.616;2023-02-01T00:35:09;101494.72;;;-12.77
74915;BMP280;63475;45.140;-75.616;2023-02-01T00:36:10;101492.44;;;-12.86
74915;BMP280;63475;45.140;-75.616;2023-02-01T00:37:11;101533.41;;;-12.62
74915;BMP280;63475;45.140;-75.616;2023-02-01T00:38:12;101544.06;;;-12.65
74915;BMP280;63475;45.140;-75.616;2023-02-01T00:39:13;101522.75;;;-12.77
74915;BMP280;63475;45.140;-75.616;2023-02-01T00:40:14;101526.91;;;-12.76
74915;BMP280;63475;45.140;-75.616;2023-02-01T00:41:17;101517.59;;;-12.89
74915;BMP280;63475;45.140;-75.616;2023-02-01T00:42:18;101530.84;;;-12.80
74915;BMP280;63475;45.140;-75.616;2023-02-01T00:43:20;101435.00;;;-13.45
74915;BMP280;63475;45.140;-75.616;2023-02-01T00:44:21;101526.06;;;-12.95
74915;BMP280;63475;45.140;-75.616;2023-02-01T00:45:22;101513.59;;;-13.10
74915;BMP280;63475;45.140;-75.616;2023-02-01T00:46:23;101515.38;;;-13.11
74915;BMP280;63475;45.140;-75.616;2023-02-01T00:47:24;101499.94;;;-13.22
74915;BMP280;63475;45.140;-75.616;2023-02-01T00:48:25;101536.91;;;-13.06
74915;BMP280;63475;45.140;-75.616;2023-02-01T00:49:27;101522.50;;;-13.19
74915;BMP280;63475;45.140;-75.616;2023-02-01T00:50:28;101522.63;;;-13.14
74915;BMP280;63475;45.140;-75.616;2023-02-01T00:51:29;101509.63;;;-13.31
74915;BMP280;63475;45.140;-75.616;2023-02-01T00:52:31;101530.53;;;-13.22
74915;BMP280;63475;45.140;-75.616;2023-02-01T00:53:32;101526.84;;;-13.26
74915;BMP280;63475;45.140;-75.616;2023-02-01T00:54:33;101525.28;;;-13.27
74915;BMP280;63475;45.140;-75.616;2023-02-01T00:55:35;101517.88;;;-13.29
74915;BMP280;63475;45.140;-75.616;2023-02-01T00:56:36;101498.13;;;-13.47
74915;BMP280;63475;45.140;-75.616;2023-02-01T00:57:36;101497.41;;;-13.54
74915;BMP280;63475;45.140;-75.616;2023-02-01T00:58:38;101527.25;;;-13.29
74915;BMP280;63475;45.140;-75.616;2023-02-01T00:59:38;101493.66;;;-13.51
74915;BMP280;63475;45.140;-75.616;2023-02-01T01:00:39;101531.19;;;-13.33
74915;BMP280;63475;45.140;-75.616;2023-02-01T01:01:40;101500.94;;;-13.55
74915;BMP280;63475;45.140;-75.616;2023-02-01T01:02:42;101520.25;;;-13.41
74915;BMP280;63475;45.140;-75.616;2023-02-01T01:03:45;101528.25;;;-13.37
74915;BMP280;63475;45.140;-75.616;2023-02-01T01:04:47;101517.66;;;-13.34
74915;BMP280;63475;45.140;-75.616;2023-02-01T01:05:49;101519.66;;;-13.36
74915;BMP280;63475;45.140;-75.616;2023-02-01T01:06:50;101483.72;;;-13.59
74915;BMP280;63475;45.140;-75.616;2023-02-01T01:07:51;101520.47;;;-13.42
74915;BMP280;63475;45.140;-75.616;2023-02-01T01:08:54;101523.00;;;-13.42
74915;BMP280;63475;45.140;-75.616;2023-02-01T01:09:55;101477.53;;;-13.77
74915;BMP280;63475;45.140;-75.616;2023-02-01T01:10:56;101518.16;;;-13.50
74915;BMP280;63475;45.140;-75.616;2023-02-01T01:11:58;101502.75;;;-13.69
74915;BMP280;63475;45.140;-75.616;2023-02-01T01:13:03;101494.53;;;-13.71
74915;BMP280;63475;45.140;-75.616;2023-02-01T01:14:06;101488.06;;;-13.73
74915;BMP280;63475;45.140;-75.616;2023-02-01T01:15:07;101517.56;;;-13.52
74915;BMP280;63475;45.140;-75.616;2023-02-01T01:16:10;101514.25;;;-13.53
74915;BMP280;63475;45.140;-75.616;2023-02-01T01:17:11;101490.22;;;-13.70
74915;BMP280;63475;45.140;-75.616;2023-02-01T01:18:12;101506.84;;;-13.61
74915;BMP280;63475;45.140;-75.616;2023-02-01T01:19:13;101504.50;;;-13.62
74915;BMP280;63475;45.140;-75.616;2023-02-01T01:20:14;101508.03;;;-13.63
74915;BMP280;63475;45.140;-75.616;2023-02-01T01:21:16;101505.28;;;-13.62
74915;BMP280;63475;45.140;-75.616;2023-02-01T01:22:17;101475.00;;;-13.83
74915;BMP280;63475;45.140;-75.616;2023-02-01T01:23:18;101506.84;;;-13.68
74915;BMP280;63475;45.140;-75.616;2023-02-01T01:24:19;101500.63;;;-13.72
74915;BMP280;63475;45.140;-75.616;2023-02-01T01:25:20;101472.28;;;-13.88
74915;BMP280;63475;45.140;-75.616;2023-02-01T01:26:24;101499.28;;;-13.81
74915;BMP280;63475;45.140;-75.616;2023-02-01T01:27:25;101507.88;;;-13.75
74915;BMP280;63475;45.140;-75.616;2023-02-01T01:28:26;101500.84;;;-13.80
74915;BMP280;63475;45.140;-75.616;2023-02-01T01:29:27;101491.88;;;-13.89
74915;BMP280;63475;45.140;-75.616;2023-02-01T01:30:28;101498.53;;;-13.88
74915;BMP280;63475;45.140;-75.616;2023-02-01T01:31:29;101484.88;;;-14.00
74915;BMP280;63475;45.140;-75.616;2023-02-01T01:32:31;101493.66;;;-13.89
74915;BMP280;63475;45.140;-75.616;2023-02-01T01:33:32;101447.75;;;-14.21
74915;BMP280;63475;45.140;-75.616;2023-02-01T01:34:32;101479.41;;;-14.10
74915;BMP280;63475;45.140;-75.616;2023-02-01T01:35:34;101453.03;;;-14.23
74915;BMP280;63475;45.140;-75.616;2023-02-01T01:36:35;101493.47;;;-14.01
74915;BMP280;63475;45.140;-75.616;2023-02-01T01:37:36;101493.66;;;-14.03
74915;BMP280;63475;45.140;-75.616;2023-02-01T01:38:38;101480.56;;;-14.06
74915;BMP280;63475;45.140;-75.616;2023-02-01T01:39:39;101488.25;;;-14.13
74915;BMP280;63475;45.140;-75.616;2023-02-01T01:40:45;101486.06;;;-14.16
74915;BMP280;63475;45.140;-75.616;2023-02-01T01:41:46;101481.78;;;-14.22
74915;BMP280;63475;45.140;-75.616;2023-02-01T01:42:47;101482.19;;;-14.25
74915;BMP280;63475;45.140;-75.616;2023-02-01T01:43:57;101475.16;;;-14.30
74915;BMP280;63475;45.140;-75.616;2023-02-01T01:45:08;101460.31;;;-14.39
74915;BMP280;63475;45.140;-75.616;2023-02-01T01:46:19;101464.81;;;-14.41
74915;BMP280;63475;45.140;-75.616;2023-02-01T01:47:21;101446.25;;;-14.55
74915;BMP280;63475;45.140;-75.616;2023-02-01T01:48:27;101471.47;;;-14.40
74915;BMP280;63475;45.140;-75.616;2023-02-01T01:49:29;101468.72;;;-14.46
74915;BMP280;63475;45.140;-75.616;2023-02-01T01:50:35;101448.41;;;-14.59
74915;BMP280;63475;45.140;-75.616;2023-02-01T01:51:50;101459.16;;;-14.57
74915;BMP280;63475;45.140;-75.616;2023-02-01T01:52:54;101464.09;;;-14.62
74915;BMP280;63475;45.140;-75.616;2023-02-01T01:54:09;101461.53;;;-14.62
74915;BMP280;63475;45.140;-75.616;2023-02-01T01:55:14;101430.84;;;-14.93
74915;BMP280;63475;45.140;-75.616;2023-02-01T01:56:15;101463.88;;;-14.80
74915;BMP280;63475;45.140;-75.616;2023-02-01T01:57:40;101441.59;;;-14.91
74915;BMP280;63475;45.140;-75.616;2023-02-01T01:58:58;101468.19;;;-14.74
74915;BMP280;63475;45.140;-75.616;2023-02-01T02:00:12;101437.50;;;-14.92
74915;BMP280;63475;45.140;-75.616;2023-02-01T02:01:14;101438.47;;;-14.87
74915;BMP280;63475;45.140;-75.616;2023-02-01T02:02:15;101461.13;;;-14.72
74915;BMP280;63475;45.140;-75.616;2023-02-01T02:03:22;101465.03;;;-14.76
74915;BMP280;63475;45.140;-75.616;2023-02-01T02:04:24;101465.03;;;-14.83
74915;BMP280;63475;45.140;-75.616;2023-02-01T02:05:26;101468.38;;;-14.89
74915;BMP280;63475;45.140;-75.616;2023-02-01T02:07:04;101472.69;;;-14.96
74915;BMP280;63475;45.140;-75.616;2023-02-01T02:08:06;101441.00;;;-15.13
74915;BMP280;63475;45.140;-75.616;2023-02-01T02:09:07;101449.41;;;-15.06
74915;BMP280;63475;45.140;-75.616;2023-02-01T02:10:10;101460.56;;;-14.94
74915;BMP280;63475;45.140;-75.616;2023-02-01T02:11:16;101450.19;;;-15.06
74915;BMP280;63475;45.140;-75.616;2023-02-01T02:12:17;101470.34;;;-14.98
74915;BMP280;63475;45.140;-75.616;2023-02-01T02:13:18;101470.91;;;-15.02
74915;BMP280;63475;45.140;-75.616;2023-02-01T02:14:21;101477.97;;;-15.04
74915;BMP280;63475;45.140;-75.616;2023-02-01T02:15:26;101473.44;;;-15.09
74915;BMP280;63475;45.140;-75.616;2023-02-01T02:17:39;101471.66;;;-15.15
74915;BMP280;63475;45.140;-75.616;2023-02-01T02:24:15;101480.06;;;-15.14
74915;BMP280;63475;45.140;-75.616;2023-02-01T02:26:01;101477.16;;;-15.18
74915;BMP280;63475;45.140;-75.616;2023-02-01T02:27:17;101481.25;;;-15.23
74915;BMP280;63475;45.140;-75.616;2023-02-01T02:28:36;101476.94;;;-15.23
74915;BMP280;63475;45.140;-75.616;2023-02-01T02:31:25;101479.03;;;-15.40
74915;BMP280;63475;45.140;-75.616;2023-02-01T02:41:46;101475.47;;;-15.59
74915;BMP280;63475;45.140;-75.616;2023-02-01T02:43:22;101482.13;;;-15.58
74915;BMP280;63475;45.140;-75.616;2023-02-01T02:45:08;101471.19;;;-15.58
74915;BMP280;63475;45.140;-75.616;2023-02-01T02:46:40;101474.31;;;-15.63
74915;BMP280;63475;45.140;-75.616;2023-02-01T02:50:04;101464.72;;;-15.74
74915;BMP280;63475;45.140;-75.616;2023-02-01T02:51:32;101416.91;;;-16.12
74915;BMP280;63475;45.140;-75.616;2023-02-01T02:53:14;101451.53;;;-15.91
74915;BMP280;63475;45.140;-75.616;2023-02-01T02:54:38;101445.09;;;-16.00
74915;BMP280;63475;45.140;-75.616;2023-02-01T02:55:47;101446.81;;;-16.00
74915;BMP280;63475;45.140;-75.616;2023-02-01T02:56:49;101458.56;;;-15.99
74915;BMP280;63475;45.140;-75.616;2023-02-01T02:58:10;101453.47;;;-15.99
74915;BMP280;63475;45.140;-75.616;2023-02-01T02:59:30;101454.03;;;-16.04
74915;BMP280;63475;45.140;-75.616;2023-02-01T03:00:52;101431.72;;;-16.15
74915;BMP280;63475;45.140;-75.616;2023-02-01T03:02:13;101450.72;;;-16.05
74915;BMP280;63475;45.140;-75.616;2023-02-01T03:03:37;101375.94;;;-16.50
74915;BMP280;63475;45.140;-75.616;2023-02-01T03:04:56;101448.56;;;-16.01
74915;BMP280;63475;45.140;-75.616;2023-02-01T03:05:57;101441.94;;;-16.02
74915;BMP280;63475;45.140;-75.616;2023-02-01T03:07:15;101422.13;;;-16.20
74915;BMP280;63475;45.140;-75.616;2023-02-01T03:08:21;101451.31;;;-16.02
74915;BMP280;63475;45.140;-75.616;2023-02-01T03:09:35;101452.22;;;-16.10
74915;BMP280;63475;45.140;-75.616;2023-02-01T03:11:55;101429.09;;;-16.35
74915;BMP280;63475;45.140;-75.616;2023-02-01T03:14:30;101411.75;;;-16.60
74915;BMP280;63475;45.140;-75.616;2023-02-01T03:17:05;101417.81;;;-16.61
74915;BMP280;63475;45.140;-75.616;2023-02-01T03:18:17;101403.16;;;-16.65
74915;BMP280;63475;45.140;-75.616;2023-02-01T03:19:24;101446.63;;;-16.40
74915;BMP280;63475;45.140;-75.616;2023-02-01T03:20:25;101419.59;;;-16.55
74915;BMP280;63475;45.140;-75.616;2023-02-01T03:21:32;101447.00;;;-16.37
74915;BMP280;63475;45.140;-75.616;2023-02-01T03:22:35;101428.63;;;-16.45
74915;BMP280;63475;45.140;-75.616;2023-02-01T03:23:38;101441.16;;;-16.37
74915;BMP280;63475;45.140;-75.616;2023-02-01T03:24:50;101449.97;;;-16.33
74915;BMP280;63475;45.140;-75.616;2023-02-01T03:25:53;101443.16;;;-16.33
74915;BMP280;63475;45.140;-75.616;2023-02-01T03:26:57;101445.88;;;-16.34
74915;BMP280;63475;45.140;-75.616;2023-02-01T03:28:05;101445.06;;;-16.41
74915;BMP280;63475;45.140;-75.616;2023-02-01T03:29:14;101432.88;;;-16.52
74915;BMP280;63475;45.140;-75.616;2023-02-01T03:30:23;101419.91;;;-16.71
74915;BMP280;63475;45.140;-75.616;2023-02-01T03:31:27;101436.31;;;-16.60
74915;BMP280;63475;45.140;-75.616;2023-02-01T03:32:29;101452.38;;;-16.53
74915;BMP280;63475;45.140;-75.616;2023-02-01T03:33:50;101426.75;;;-16.65
74915;BMP280;63475;45.140;-75.616;2023-02-01T03:34:51;101419.09;;;-16.71
74915;BMP280;63475;45.140;-75.616;2023-02-01T03:36:13;101453.53;;;-16.49
74915;BMP280;63475;45.140;-75.616;2023-02-01T03:37:23;101457.81;;;-16.56
74915;BMP280;63475;45.140;-75.616;2023-02-01T03:39:57;101434.63;;;-16.81
74915;BMP280;63475;45.140;-75.616;2023-02-01T03:41:19;101451.88;;;-16.70
74915;BMP280;63475;45.140;-75.616;2023-02-01T03:42:40;101451.09;;;-16.70
74915;BMP280;63475;45.140;-75.616;2023-02-01T03:44:08;101458.84;;;-16.72
74915;BMP280;63475;45.140;-75.616;2023-02-01T03:45:31;101424.59;;;-16.89
74915;BMP280;63475;45.140;-75.616;2023-02-01T03:46:42;101434.00;;;-16.83
74915;BMP280;63475;45.140;-75.616;2023-02-01T03:47:48;101450.25;;;-16.77
74915;BMP280;63475;45.140;-75.616;2023-02-01T03:48:51;101450.25;;;-16.77
74915;BMP280;63475;45.140;-75.616;2023-02-01T03:51:03;101443.13;;;-16.89
74915;BMP280;63475;45.140;-75.616;2023-02-01T03:52:06;101439.81;;;-16.89
74915;BMP280;63475;45.140;-75.616;2023-02-01T03:53:13;101398.88;;;-17.14
74915;BMP280;63475;45.140;-75.616;2023-02-01T03:54:15;101431.03;;;-16.93
74915;BMP280;63475;45.140;-75.616;2023-02-01T03:55:20;101424.56;;;-16.96
74915;BMP280;63475;45.140;-75.616;2023-02-01T03:56:24;101427.28;;;-16.97
74915;BMP280;63475;45.140;-75.616;2023-02-01T03:57:32;101436.44;;;-16.96
74915;BMP280;63475;45.140;-75.616;2023-02-01T03:58:35;101419.81;;;-17.05
74915;BMP280;63475;45.140;-75.616;2023-02-01T03:59:42;101414.72;;;-17.05
74915;BMP280;63475;45.140;-75.616;2023-02-01T04:00:53;101431.63;;;-16.91
74915;BMP280;63475;45.140;-75.616;2023-02-01T04:01:55;101431.38;;;-16.96
74915;BMP280;63475;45.140;-75.616;2023-02-01T04:02:56;101408.84;;;-17.13
74915;BMP280;63475;45.140;-75.616;2023-02-01T04:03:57;101427.47;;;-16.99
74915;BMP280;63475;45.140;-75.616;2023-02-01T04:04:58;101434.88;;;-16.97
74915;BMP280;63475;45.140;-75.616;2023-02-01T04:05:59;101400.38;;;-17.20
74915;BMP280;63475;45.140;-75.616;2023-02-01T04:07:00;101442.25;;;-17.02
74915;BMP280;63475;45.140;-75.616;2023-02-01T04:08:01;101433.53;;;-17.15
74915;BMP280;63475;45.140;-75.616;2023-02-01T04:09:02;101400.84;;;-17.38
74915;BMP280;63475;45.140;-75.616;2023-02-01T04:10:04;101434.69;;;-17.17
74915;BMP280;63475;45.140;-75.616;2023-02-01T04:11:05;101410.81;;;-17.29
74915;BMP280;63475;45.140;-75.616;2023-02-01T04:12:06;101438.25;;;-17.12
74915;BMP280;63475;45.140;-75.616;2023-02-01T04:13:08;101429.25;;;-17.14
74915;BMP280;63475;45.140;-75.616;2023-02-01T04:14:10;101438.69;;;-17.08
74915;BMP280;63475;45.140;-75.616;2023-02-01T04:15:11;101419.44;;;-17.24
74915;BMP280;63475;45.140;-75.616;2023-02-01T04:16:12;101430.31;;;-17.09
74915;BMP280;63475;45.140;-75.616;2023-02-01T04:17:13;101433.91;;;-17.18
74915;BMP280;63475;45.140;-75.616;2023-02-01T04:18:14;101436.03;;;-17.21
74915;BMP280;63475;45.140;-75.616;2023-02-01T04:19:15;101428.84;;;-17.39
74915;BMP280;63475;45.140;-75.616;2023-02-01T04:20:16;101439.09;;;-17.26
74915;BMP280;63475;45.140;-75.616;2023-02-01T04:21:17;101437.44;;;-17.34
74915;BMP280;63475;45.140;-75.616;2023-02-01T04:22:18;101436.50;;;-17.33
74915;BMP280;63475;45.140;-75.616;2023-02-01T04:23:19;101438.59;;;-17.36
74915;BMP280;63475;45.140;-75.616;2023-02-01T04:24:21;101444.63;;;-17.37
74915;BMP280;63475;45.140;-75.616;2023-02-01T04:25:21;101442.69;;;-17.35
74915;BMP280;63475;45.140;-75.616;2023-02-01T04:26:22;101439.56;;;-17.37
74915;BMP280;63475;45.140;-75.616;2023-02-01T04:27:24;101446.19;;;-17.36
74915;BMP280;63475;45.140;-75.616;2023-02-01T04:28:25;101402.66;;;-17.68
74915;BMP280;63475;45.140;-75.616;2023-02-01T04:29:26;101408.53;;;-17.61
74915;BMP280;63475;45.140;-75.616;2023-02-01T04:30:29;101448.50;;;-17.41
74915;BMP280;63475;45.140;-75.616;2023-02-01T04:31:30;101435.59;;;-17.46
74915;BMP280;63475;45.140;-75.616;2023-02-01T04:32:31;101425.97;;;-17.51
74915;BMP280;63475;45.140;-75.616;2023-02-01T04:33:32;101441.47;;;-17.39
74915;BMP280;63475;45.140;-75.616;2023-02-01T04:34:33;101407.75;;;-17.61
74915;BMP280;63475;45.140;-75.616;2023-02-01T04:35:34;101425.47;;;-17.46
74915;BMP280;63475;45.140;-75.616;2023-02-01T04:36:35;101400.38;;;-17.63
74915;BMP280;63475;45.140;-75.616;2023-02-01T04:37:36;101423.91;;;-17.47
74915;BMP280;63475;45.140;-75.616;2023-02-01T04:38:37;101428.25;;;-17.41
74915;BMP280;63475;45.140;-75.616;2023-02-01T04:39:38;101403.56;;;-17.75
74915;BMP280;63475;45.140;-75.616;2023-02-01T04:40:39;101420.59;;;-17.63
74915;BMP280;63475;45.140;-75.616;2023-02-01T04:41:40;101431.44;;;-17.69
74915;BMP280;63475;45.140;-75.616;2023-02-01T04:42:41;101435.72;;;-17.69
74915;BMP280;63475;45.140;-75.616;2023-02-01T04:43:42;101438.25;;;-17.69
74915;BMP280;63475;45.140;-75.616;2023-02-01T04:44:43;101410.94;;;-17.89
74915;BMP280;63475;45.140;-75.616;2023-02-01T04:45:48;101418.78;;;-17.84
74915;BMP280;63475;45.140;-75.616;2023-02-01T04:46:49;101428.31;;;-17.86
74915;BMP280;63475;45.140;-75.616;2023-02-01T04:47:50;101434.69;;;-17.75
74915;BMP280;63475;45.140;-75.616;2023-02-01T04:48:51;101425.00;;;-17.86
74915;BMP280;63475;45.140;-75.616;2023-02-01T04:49:52;101430.59;;;-17.76
74915;BMP280;63475;45.140;-75.616;2023-02-01T04:50:53;101383.34;;;-18.05
74915;BMP280;63475;45.140;-75.616;2023-02-01T04:51:54;101439.56;;;-17.73
74915;BMP280;63475;45.140;-75.616;2023-02-01T04:52:55;101433.13;;;-17.76
74915;BMP280;63475;45.140;-75.616;2023-02-01T04:53:56;101419.94;;;-17.86
74915;BMP280;63475;45.140;-75.616;2023-02-01T04:54:57;101432.59;;;-17.86
74915;BMP280;63475;45.140;-75.616;2023-02-01T04:55:59;101428.22;;;-17.92
74915;BMP280;63475;45.140;-75.616;2023-02-01T04:57:00;101420.28;;;-17.89
74915;BMP280;63475;45.140;-75.616;2023-02-01T04:58:01;101425.94;;;-17.87
74915;BMP280;63475;45.140;-75.616;2023-02-01T04:59:02;101420.53;;;-17.84
74915;BMP280;63475;45.140;-75.616;2023-02-01T05:00:04;101401.09;;;-17.98
74915;BMP280;63475;45.140;-75.616;2023-02-01T05:01:08;101412.34;;;-17.86
74915;BMP280;63475;45.140;-75.616;2023-02-01T05:02:09;101415.22;;;-17.89
74915;BMP280;63475;45.140;-75.616;2023-02-01T05:03:10;101412.44;;;-17.94
74915;BMP280;63475;45.140;-75.616;2023-02-01T05:04:11;101412.63;;;-17.96
74915;BMP280;63475;45.140;-75.616;2023-02-01T05:05:12;101399.66;;;-18.07
74915;BMP280;63475;45.140;-75.616;2023-02-01T05:06:13;101413.59;;;-17.97
74915;BMP280;63475;45.140;-75.616;2023-02-01T05:07:14;101399.72;;;-18.01
74915;BMP280;63475;45.140;-75.616;2023-02-01T05:08:15;101411.47;;;-17.93
74915;BMP280;63475;45.140;-75.616;2023-02-01T05:09:16;101377.59;;;-18.14
74915;BMP280;63475;45.140;-75.616;2023-02-01T05:10:17;101386.84;;;-18.06
74915;BMP280;63475;45.140;-75.616;2023-02-01T05:11:18;101401.88;;;-17.98
74915;BMP280;63475;45.140;-75.616;2023-02-01T05:12:37;101403.88;;;-17.93
74915;BMP280;63475;45.140;-75.616;2023-02-01T05:13:58;101406.59;;;-17.95
74915;BMP280;63475;45.140;-75.616;2023-02-01T05:14:58;101405.81;;;-17.95
74915;BMP280;63475;45.140;-75.616;2023-02-01T05:15:59;101409.31;;;-17.96
74915;BMP280;63475;45.140;-75.616;2023-02-01T05:17:00;101368.53;;;-18.23
74915;BMP280;63475;45.140;-75.616;2023-02-01T05:18:01;101409.31;;;-17.96
74915;BMP280;63475;45.140;-75.616;2023-02-01T05:19:02;101414.19;;;-17.95
74915;BMP280;63475;45.140;-75.616;2023-02-01T05:20:03;101400.34;;;-18.14
74915;BMP280;63475;45.140;-75.616;2023-02-01T05:21:05;101406.03;;;-18.12
74915;BMP280;63475;45.140;-75.616;2023-02-01T05:22:05;101410.13;;;-18.11
74915;BMP280;63475;45.140;-75.616;2023-02-01T05:23:06;101423.91;;;-18.13
74915;BMP280;63475;45.140;-75.616;2023-02-01T05:24:08;101413.41;;;-18.25
74915;BMP280;63475;45.140;-75.616;2023-02-01T05:25:20;101419.19;;;-18.16
74915;BMP280;63475;45.140;-75.616;2023-02-01T05:26:21;101396.41;;;-18.31
74915;BMP280;63475;45.140;-75.616;2023-02-01T05:27:22;101421.25;;;-18.20
74915;BMP280;63475;45.140;-75.616;2023-02-01T05:28:23;101417.94;;;-18.20
74915;BMP280;63475;45.140;-75.616;2023-02-01T05:29:24;101400.69;;;-18.31
74915;BMP280;63475;45.140;-75.616;2023-02-01T05:30:25;101421.41;;;-18.21
74915;BMP280;63475;45.140;-75.616;2023-02-01T05:31:26;101411.66;;;-18.24
74915;BMP280;63475;45.140;-75.616;2023-02-01T05:32:27;101386.31;;;-18.46
74915;BMP280;63475;45.140;-75.616;2023-02-01T05:33:28;101415.66;;;-18.30
74915;BMP280;63475;45.140;-75.616;2023-02-01T05:34:29;101376.56;;;-18.49
74915;BMP280;63475;45.140;-75.616;2023-02-01T05:35:30;101376.38;;;-18.47
74915;BMP280;63475;45.140;-75.616;2023-02-01T05:36:31;101403.03;;;-18.30
74915;BMP280;63475;45.140;-75.616;2023-02-01T05:37:32;101381.19;;;-18.52
74915;BMP280;63475;45.140;-75.616;2023-02-01T05:38:33;101382.91;;;-18.53
74915;BMP280;63475;45.140;-75.616;2023-02-01T05:39:34;101412.88;;;-18.35
74915;BMP280;63475;45.140;-75.616;2023-02-01T05:40:35;101379.97;;;-18.65
74915;BMP280;63475;45.140;-75.616;2023-02-01T05:41:36;101415.66;;;-18.45
74915;BMP280;63475;45.140;-75.616;2023-02-01T05:42:37;101406.25;;;-18.51
74915;BMP280;63475;45.140;-75.616;2023-02-01T05:43:38;101363.69;;;-18.77
74915;BMP280;63475;45.140;-75.616;2023-02-01T05:44:39;101405.41;;;-18.43
74915;BMP280;63475;45.140;-75.616;2023-02-01T05:45:40;101400.88;;;-18.48
74915;BMP280;63475;45.140;-75.616;2023-02-01T05:46:41;101408.25;;;-18.46
74915;BMP280;63475;45.140;-75.616;2023-02-01T05:47:42;101408.59;;;-18.49
74915;BMP280;63475;45.140;-75.616;2023-02-01T05:48:43;101414.53;;;-18.42
74915;BMP280;63475;45.140;-75.616;2023-02-01T05:49:44;101408.59;;;-18.49
74915;BMP280;63475;45.140;-75.616;2023-02-01T05:50:45;101409.78;;;-18.60
74915;BMP280;63475;45.140;-75.616;2023-02-01T05:51:46;101403.69;;;-18.66
74915;BMP280;63475;45.140;-75.616;2023-02-01T05:52:47;101370.41;;;-18.84
74915;BMP280;63475;45.140;-75.616;2023-02-01T05:53:48;101405.69;;;-18.61
74915;BMP280;63475;45.140;-75.616;2023-02-01T05:54:49;101369.16;;;-18.88
74915;BMP280;63475;45.140;-75.616;2023-02-01T05:55:50;101390.44;;;-18.68
74915;BMP280;63475;45.140;-75.616;2023-02-01T05:56:51;101332.63;;;-19.15
74915;BMP280;63475;45.140;-75.616;2023-02-01T05:57:52;101400.88;;;-18.71
74915;BMP280;63475;45.140;-75.616;2023-02-01T05:58:52;101394.53;;;-18.67
74915;BMP280;63475;45.140;-75.616;2023-02-01T05:59:53;101363.75;;;-18.85
74915;BMP280;63475;45.140;-75.616;2023-02-01T06:00:54;101391.94;;;-18.73
74915;BMP280;63475;45.140;-75.616;2023-02-01T06:01:55;101393.31;;;-18.71
74915;BMP280;63475;45.140;-75.616;2023-02-01T06:02:56;101385.66;;;-18.77
74915;BMP280;63475;45.140;-75.616;2023-02-01T06:03:57;101369.22;;;-18.96
74915;BMP280;63475;45.140;-75.616;2023-02-01T06:04:58;101382.41;;;-18.86
74915;BMP280;63475;45.140;-75.616;2023-02-01T06:05:59;101387.91;;;-18.82
74915;BMP280;63475;45.140;-75.616;2023-02-01T06:07:01;101379.38;;;-18.81
74915;BMP280;63475;45.140;-75.616;2023-02-01T06:08:02;101382.59;;;-18.88
74915;BMP280;63475;45.140;-75.616;2023-02-01T06:09:03;101378.63;;;-18.90
74915;BMP280;63475;45.140;-75.616;2023-02-01T06:10:04;101368.94;;;-19.01
74915;BMP280;63475;45.140;-75.616;2023-02-01T06:11:06;101385.59;;;-18.92
74915;BMP280;63475;45.140;-75.616;2023-02-01T06:12:07;101383.06;;;-18.92
74915;BMP280;63475;45.140;-75.616;2023-02-01T06:13:09;101379.44;;;-18.90
74915;BMP280;63475;45.140;-75.616;2023-02-01T06:14:09;101384.47;;;-18.90
74915;BMP280;63475;45.140;-75.616;2023-02-01T06:15:11;101384.47;;;-18.90
74915;BMP280;63475;45.140;-75.616;2023-02-01T06:16:12;101373.22;;;-19.02